sensor_id;sensor_type;location;lat;lon;timestamp;temperature;humidity
1896;DHT22;1455;51.440;7.308;2022-09-27T06:23:08;10.80;99.90
1896;DHT22;1455;51.440;7.308;2022-09-27T06:27:07;10.80;99.90
1896;DHT22;1455;51.440;7.308;2022-09-27T06:29:17;10.80;99.90
1896;DHT22;1455;51.440;7.308;2022-09-27T06:32:18;10.90;99.90
1896;DHT22;1455;51.440;7.308;2022-09-27T06:35:05;11.00;99.90
1896;DHT22;1455;51.440;7.308;2022-09-27T06:37:51;11.00;99.90
1896;DHT22;1455;51.440;7.308;2022-09-27T06:40:41;11.00;99.90
1896;DHT22;1455;51.440;7.308;2022-09-27T06:43:34;11.10;99.90
1896;DHT22;1455;51.440;7.308;2022-09-27T06:46:25;11.10;99.90
1896;DHT22;1455;51.440;7.308;2022-09-27T06:49:11;11.10;99.90
1896;DHT22;1455;51.440;7.308;2022-09-27T06:51:57;11.20;99.90
1896;DHT22;1455;51.440;7.308;2022-09-27T06:54:43;11.20;99.90
1896;DHT22;1455;51.440;7.308;2022-09-27T06:57:31;11.20;99.90
1896;DHT22;1455;51.440;7.308;2022-09-27T08:56:53;12.10;99.90
1896;DHT22;1455;51.440;7.308;2022-09-27T09:03:52;12.40;99.90
1896;DHT22;1455;51.440;7.308;2022-09-27T11:03:24;12.30;99.90
1896;DHT22;1455;51.440;7.308;2022-09-27T11:06:28;12.50;99.90
1896;DHT22;1455;51.440;7.308;2022-09-27T11:09:24;12.50;99.90
1896;DHT22;1455;51.440;7.308;2022-09-27T11:12:18;12.70;99.90
1896;DHT22;1455;51.440;7.308;2022-09-27T11:15:24;12.80;99.90
1896;DHT22;1455;51.440;7.308;2022-09-27T11:18:19;13.00;99.90
1896;DHT22;1455;51.440;7.308;2022-09-27T11:21:25;13.20;99.90
1896;DHT22;1455;51.440;7.308;2022-09-27T11:27:41;13.20;99.90
1896;DHT22;1455;51.440;7.308;2022-09-27T11:30:42;13.20;99.90
1896;DHT22;1455;51.440;7.308;2022-09-27T11:34:00;13.30;99.90
1896;DHT22;1455;51.440;7.308;2022-09-27T11:37:26;13.20;99.90
1896;DHT22;1455;51.440;7.308;2022-09-27T11:40:22;13.10;99.90
1896;DHT22;1455;51.440;7.308;2022-09-27T11:43:25;13.00;99.90
1896;DHT22;1455;51.440;7.308;2022-09-27T11:46:18;12.90;99.90
1896;DHT22;1455;51.440;7.308;2022-09-27T11:49:35;12.90;99.90
1896;DHT22;1455;51.440;7.308;2022-09-27T11:52:31;12.90;99.90
1896;DHT22;1455;51.440;7.308;2022-09-27T11:55:24;13.00;99.90
1896;DHT22;1455;51.440;7.308;2022-09-27T11:58:21;13.00;99.90
1896;DHT22;1455;51.440;7.308;2022-09-27T12:01:18;13.00;99.90
1896;DHT22;1455;51.440;7.308;2022-09-27T12:07:44;12.90;99.90
1896;DHT22;1455;51.440;7.308;2022-09-27T12:10:33;12.80;99.90
1896;DHT22;1455;51.440;7.308;2022-09-27T12:13:25;12.80;99.90
1896;DHT22;1455;51.440;7.308;2022-09-27T12:16:16;12.70;99.90
1896;DHT22;1455;51.440;7.308;2022-09-27T12:19:18;12.60;99.90
1896;DHT22;1455;51.440;7.308;2022-09-27T12:22:10;12.70;99.90
1896;DHT22;1455;51.440;7.308;2022-09-27T12:25:11;12.70;99.90
1896;DHT22;1455;51.440;7.308;2022-09-27T12:28:05;12.80;99.90
1896;DHT22;1455;51.440;7.308;2022-09-27T12:31:18;12.90;99.90
